Time;durP1;ratioP1;P1;durP2;ratioP2;P2;SDS_P1;SDS_P2;PMS_P1;PMS_P2;Temp;Humidity;BMP_temperature;BMP_pressure;BME280_temperature;BME280_humidity;BME280_pressure;Samples;Min_cycle;Max_cycle;Signal;HPM_P1;HPM_P2
2022/05/12 00:00:26;;;;;;;19.90;2.83;;;13.50;99.90;;;;;;5068287;28;20397;-65
2022/05/12 00:02:53;;;;;;;16.38;2.80;;;13.50;99.90;;;;;;5067117;28;20451;-64
2022/05/12 00:05:20;;;;;;;14.93;2.75;;;13.50;99.90;;;;;;5064300;28;20423;-66
2022/05/12 00:07:46;;;;;;;14.57;2.50;;;13.50;99.90;;;;;;5068378;28;20455;-63
2022/05/12 00:10:15;;;;;;;12.83;2.80;;;13.50;99.90;;;;;;5069113;28;20868;-62
2022/05/12 00:12:42;;;;;;;18.25;3.03;;;13.50;99.90;;;;;;5066986;28;20418;-65
2022/05/12 00:15:13;;;;;;;18.48;3.00;;;13.50;99.90;;;;;;5067413;28;20427;-64
2022/05/12 00:17:38;;;;;;;18.00;2.90;;;13.50;99.90;;;;;;5067698;28;20817;-63
2022/05/12 00:20:05;;;;;;;13.67;2.40;;;13.50;99.90;;;;;;5069390;28;20490;-63
2022/05/12 00:22:31;;;;;;;19.50;3.03;;;13.50;99.90;;;;;;5061968;28;20415;-64
2022/05/12 00:24:56;;;;;;;14.43;2.63;;;13.50;99.90;;;;;;5069490;28;20498;-65
2022/05/12 00:27:22;;;;;;;15.10;2.70;;;13.40;99.90;;;;;;5067831;28;20408;-63
2022/05/12 00:29:48;;;;;;;12.73;2.80;;;13.50;99.90;;;;;;5066897;28;20407;-65
2022/05/12 00:32:13;;;;;;;17.00;2.90;;;13.40;99.90;;;;;;5067429;28;20412;-65
2022/05/12 00:34:39;;;;;;;20.13;3.30;;;13.50;99.90;;;;;;5064655;28;20489;-65
2022/05/12 00:37:05;;;;;;;13.68;2.50;;;13.50;99.90;;;;;;5064709;28;20415;-64
2022/05/12 00:39:31;;;;;;;19.50;3.15;;;13.40;99.90;;;;;;5068524;28;20860;-63
2022/05/12 00:41:56;;;;;;;14.95;2.90;;;13.40;99.90;;;;;;5066961;28;20416;-65
2022/05/12 00:44:22;;;;;;;15.73;2.90;;;13.50;99.90;;;;;;5068432;28;20908;-66
2022/05/12 00:46:50;;;;;;;19.10;3.03;;;13.40;99.90;;;;;;5064282;28;20409;-63
2022/05/12 00:49:35;;;;;;;13.30;2.67;;;13.40;99.90;;;;;;5069105;28;20498;-64
2022/05/12 00:52:11;;;;;;;15.93;2.70;;;13.40;99.90;;;;;;5065745;28;20411;-65
2022/05/12 00:54:51;;;;;;;13.73;2.60;;;13.30;99.90;;;;;;5067528;28;20415;-64
2022/05/12 00:57:26;;;;;;;17.92;2.80;;;13.40;99.90;;;;;;5066364;28;20763;-64
2022/05/12 00:59:52;;;;;;;15.32;2.33;;;13.30;99.90;;;;;;5066038;28;20489;-64
2022/05/12 01:02:19;;;;;;;12.35;2.45;;;13.30;99.90;;;;;;5063432;28;20432;-63
2022/05/12 01:04:47;;;;;;;14.88;2.60;;;13.30;99.90;;;;;;5063614;28;20477;-63
2022/05/12 01:07:14;;;;;;;14.20;2.40;;;13.30;99.90;;;;;;5065701;28;20450;-64
2022/05/12 01:09:40;;;;;;;16.67;2.80;;;13.30;99.90;;;;;;5068020;28;20430;-64
2022/05/12 01:12:06;;;;;;;21.83;3.38;;;13.30;99.90;;;;;;5064480;28;20416;-64
2022/05/12 01:14:32;;;;;;;15.32;2.80;;;13.30;99.90;;;;;;5068598;28;20483;-64
2022/05/12 01:17:00;;;;;;;17.38;3.13;;;13.30;99.90;;;;;;5066503;28;20506;-64
2022/05/12 01:19:35;;;;;;;17.33;3.20;;;13.30;99.90;;;;;;5066614;28;20418;-64
2022/05/12 01:22:02;;;;;;;21.48;3.42;;;13.30;99.90;;;;;;5062857;28;20476;-65
2022/05/12 01:24:35;;;;;;;20.73;3.53;;;13.30;99.90;;;;;;5067617;28;20451;-65
2022/05/12 01:27:19;;;;;;;16.43;3.47;;;13.30;99.90;;;;;;5061010;28;20423;-67
2022/05/12 01:29:47;;;;;;;22.05;3.70;;;13.30;99.90;;;;;;5065336;28;20886;-65
2022/05/12 01:32:12;;;;;;;18.43;3.93;;;13.20;99.90;;;;;;5065576;28;20411;-64
2022/05/12 01:34:38;;;;;;;16.60;4.35;;;13.30;99.90;;;;;;5048272;28;21025;-63
2022/05/12 01:37:04;;;;;;;20.10;4.30;;;13.30;99.90;;;;;;5065258;28;20426;-65
2022/05/12 01:39:30;;;;;;;17.90;4.10;;;13.30;99.90;;;;;;5065636;28;20426;-64
2022/05/12 01:41:58;;;;;;;16.48;4.43;;;13.30;99.90;;;;;;5064544;28;20415;-64
2022/05/12 01:44:23;;;;;;;21.33;4.28;;;13.30;99.90;;;;;;5067291;28;20461;-65
2022/05/12 01:46:49;;;;;;;20.17;4.67;;;13.30;99.90;;;;;;5064065;28;20895;-64
2022/05/12 01:49:14;;;;;;;17.73;4.60;;;13.30;99.90;;;;;;5064599;28;20415;-65
2022/05/12 01:51:40;;;;;;;15.23;4.78;;;13.30;99.90;;;;;;5065068;28;20446;-64
2022/05/12 01:54:06;;;;;;;18.35;5.18;;;13.30;99.90;;;;;;5065972;28;20496;-64
2022/05/12 01:56:32;;;;;;;17.10;4.80;;;13.30;99.90;;;;;;5065142;28;20429;-63
2022/05/12 01:58:58;;;;;;;17.00;5.27;;;13.30;99.90;;;;;;5064311;28;20411;-65
2022/05/12 02:01:23;;;;;;;19.30;5.10;;;13.30;99.90;;;;;;5065035;28;20506;-64
2022/05/12 02:03:49;;;;;;;19.13;4.90;;;13.30;99.90;;;;;;5065999;28;20403;-65
2022/05/12 02:06:14;;;;;;;13.88;4.80;;;13.30;99.90;;;;;;5064774;28;20850;-65
2022/05/12 02:08:40;;;;;;;19.43;4.73;;;13.30;99.90;;;;;;5068202;28;20483;-64
2022/05/12 02:11:06;;;;;;;13.43;4.97;;;13.30;99.90;;;;;;5062614;28;20438;-64
2022/05/12 02:13:32;;;;;;;16.40;4.90;;;13.30;99.90;;;;;;5065956;28;20417;-64
2022/05/12 02:15:57;;;;;;;18.77;4.90;;;13.30;99.90;;;;;;5066768;28;20388;-64
2022/05/12 02:18:25;;;;;;;17.30;4.95;;;13.30;99.90;;;;;;5066339;28;20507;-65
2022/05/12 02:20:51;;;;;;;15.52;4.63;;;13.30;99.90;;;;;;5067522;28;20407;-65
2022/05/12 02:23:17;;;;;;;14.35;4.18;;;13.30;99.90;;;;;;5062823;28;20445;-65
2022/05/12 02:25:43;;;;;;;16.30;4.32;;;13.30;99.90;;;;;;5066222;28;20830;-65
2022/05/12 02:28:10;;;;;;;14.63;4.32;;;13.30;99.90;;;;;;5064671;28;20408;-64
2022/05/12 02:30:36;;;;;;;15.48;4.30;;;13.30;99.90;;;;;;5065748;28;20414;-63
2022/05/12 02:33:02;;;;;;;14.87;4.10;;;13.30;99.90;;;;;;5064482;28;20403;-64
2022/05/12 02:35:28;;;;;;;17.67;3.70;;;13.30;99.90;;;;;;5065254;28;20415;-63
2022/05/12 02:37:54;;;;;;;16.92;3.40;;;13.30;99.90;;;;;;5064743;28;20429;-65
2022/05/12 02:40:22;;;;;;;14.33;3.90;;;13.30;99.90;;;;;;5066168;28;20437;-63
2022/05/12 02:42:48;;;;;;;14.52;3.53;;;13.20;99.90;;;;;;5065748;28;20423;-64
2022/05/12 02:45:15;;;;;;;14.05;3.58;;;13.20;99.90;;;;;;5065820;28;20726;-65
2022/05/12 02:47:41;;;;;;;14.43;3.50;;;13.20;99.90;;;;;;5065427;28;21333;-65
2022/05/12 02:50:08;;;;;;;13.77;3.50;;;13.20;99.90;;;;;;5064850;28;20412;-65
2022/05/12 02:52:34;;;;;;;15.20;3.80;;;13.30;99.90;;;;;;5063548;28;20955;-65
2022/05/12 02:55:00;;;;;;;10.18;3.72;;;13.20;99.90;;;;;;5066712;28;20399;-66
2022/05/12 02:57:25;;;;;;;16.23;3.97;;;13.20;99.90;;;;;;5063669;28;20392;-66
2022/05/12 02:59:51;;;;;;;12.57;3.90;;;13.20;99.90;;;;;;5065091;28;20419;-63
2022/05/12 03:02:18;;;;;;;16.47;3.70;;;13.30;99.90;;;;;;5063970;28;21300;-64
2022/05/12 03:04:44;;;;;;;13.65;4.00;;;13.20;99.90;;;;;;5062693;28;20419;-62
2022/05/12 03:07:10;;;;;;;14.77;4.38;;;13.20;99.90;;;;;;5064591;28;20573;-64
2022/05/12 03:09:36;;;;;;;12.52;4.00;;;13.20;99.90;;;;;;5063856;28;20476;-64
2022/05/12 03:12:02;;;;;;;14.30;4.30;;;13.20;99.90;;;;;;5064860;28;20411;-64
2022/05/12 03:14:28;;;;;;;15.45;4.20;;;13.20;99.90;;;;;;5065022;28;20407;-63
2022/05/12 03:16:54;;;;;;;19.27;4.47;;;13.20;99.90;;;;;;5064202;28;20989;-65
2022/05/12 03:19:21;;;;;;;17.50;4.23;;;13.20;99.90;;;;;;5065767;28;20411;-66
2022/05/12 03:21:47;;;;;;;15.52;4.15;;;13.20;99.90;;;;;;5064406;28;20408;-65
2022/05/12 03:24:17;;;;;;;16.85;4.50;;;13.20;99.90;;;;;;5068809;28;20814;-66
2022/05/12 03:26:42;;;;;;;14.57;4.10;;;13.10;99.90;;;;;;5068522;28;20987;-66
2022/05/12 03:29:08;;;;;;;13.13;4.03;;;13.10;99.90;;;;;;5065868;28;20550;-64
2022/05/12 03:31:34;;;;;;;14.27;4.17;;;13.10;99.90;;;;;;5067644;28;21982;-65
2022/05/12 03:34:00;;;;;;;17.13;4.17;;;13.10;99.90;;;;;;5068374;28;20541;-63
2022/05/12 03:36:26;;;;;;;14.18;4.10;;;13.10;99.90;;;;;;5069550;28;20420;-64
2022/05/12 03:38:53;;;;;;;15.55;4.20;;;13.10;99.90;;;;;;5067478;28;20915;-63
2022/05/12 03:41:19;;;;;;;14.32;4.28;;;13.10;99.90;;;;;;5068014;28;20506;-64
2022/05/12 03:46:32;;;;;;;14.82;4.70;;;13.10;99.90;;;;;;5069531;28;20780;-62
2022/05/12 03:49:01;;;;;;;12.40;4.40;;;13.10;99.90;;;;;;5067663;28;20545;-65
2022/05/12 03:51:26;;;;;;;18.70;4.50;;;13.10;99.90;;;;;;5069363;28;20768;-67
2022/05/12 03:53:52;;;;;;;13.50;3.90;;;13.10;99.90;;;;;;5064006;28;20189;-66
2022/05/12 03:56:18;;;;;;;13.50;4.10;;;12.70;99.90;;;;;;5071057;28;20186;-66
2022/05/12 03:58:44;;;;;;;15.90;4.60;;;12.50;99.90;;;;;;5064379;28;20191;-65
2022/05/12 04:01:10;;;;;;;20.92;4.25;;;12.30;99.90;;;;;;5070425;28;20205;-65
2022/05/12 04:03:36;;;;;;;16.08;4.45;;;12.20;99.90;;;;;;5067589;28;20427;-66
2022/05/12 04:06:05;;;;;;;17.08;4.90;;;12.40;99.90;;;;;;5067742;28;20423;-65
2022/05/12 04:08:31;;;;;;;15.75;4.80;;;12.60;99.90;;;;;;5066138;28;20459;-65
2022/05/12 04:10:57;;;;;;;23.60;5.60;;;12.80;99.90;;;;;;5065604;28;20493;-65
2022/05/12 04:13:23;;;;;;;19.33;5.05;;;12.80;99.90;;;;;;5066962;28;20793;-65
2022/05/12 04:15:49;;;;;;;19.53;4.60;;;12.90;99.90;;;;;;5068289;28;20411;-64
2022/05/12 04:18:14;;;;;;;19.98;5.18;;;12.90;99.90;;;;;;5068471;28;20416;-66
2022/05/12 04:20:41;;;;;;;18.85;5.03;;;12.90;99.90;;;;;;5066177;28;20488;-65
2022/05/12 04:23:08;;;;;;;18.10;4.65;;;12.90;99.90;;;;;;5065805;28;20446;-65
2022/05/12 04:25:34;;;;;;;19.48;4.35;;;12.90;99.90;;;;;;5069521;28;20418;-64
2022/05/12 04:28:00;;;;;;;20.45;4.82;;;12.90;99.90;;;;;;5058336;28;20452;-64
2022/05/12 04:30:26;;;;;;;16.02;4.40;;;13.00;99.90;;;;;;5064355;28;20415;-66
2022/05/12 04:32:53;;;;;;;16.60;4.72;;;13.00;99.90;;;;;;5066208;28;20403;-65
2022/05/12 04:35:20;;;;;;;16.38;4.93;;;13.00;99.90;;;;;;5066482;28;20477;-67
2022/05/12 04:37:52;;;;;;;17.50;4.40;;;13.00;99.90;;;;;;5065037;28;20985;-64
2022/05/12 04:40:22;;;;;;;19.77;4.80;;;13.00;99.90;;;;;;5068038;28;20499;-66
2022/05/12 04:42:49;;;;;;;16.63;4.38;;;13.00;99.90;;;;;;5066843;28;20414;-64
2022/05/12 04:45:17;;;;;;;19.60;4.57;;;13.00;99.90;;;;;;5069310;28;20438;-64
2022/05/12 04:47:43;;;;;;;20.13;4.20;;;13.10;99.90;;;;;;5066667;28;20403;-65
2022/05/12 04:50:12;;;;;;;15.98;3.92;;;13.10;99.90;;;;;;5062696;28;20423;-64
2022/05/12 04:52:38;;;;;;;16.67;4.45;;;13.10;99.90;;;;;;5065339;28;20415;-64
2022/05/12 04:55:05;;;;;;;15.77;4.30;;;13.10;99.90;;;;;;5066430;28;20461;-64
2022/05/12 04:57:38;;;;;;;16.40;4.38;;;13.10;99.90;;;;;;5068443;28;20896;-65
2022/05/12 05:00:07;;;;;;;19.17;4.40;;;13.10;99.90;;;;;;5060160;28;20811;-63
2022/05/12 05:02:32;;;;;;;14.10;3.77;;;13.20;99.90;;;;;;5068563;28;20479;-64
2022/05/12 05:04:58;;;;;;;15.65;4.50;;;13.20;99.90;;;;;;5060522;28;20963;-63
2022/05/12 05:07:26;;;;;;;14.87;3.90;;;13.20;99.90;;;;;;5069115;28;20396;-65
2022/05/12 05:09:52;;;;;;;15.90;3.88;;;13.20;99.90;;;;;;5061567;28;20490;-64
2022/05/12 05:12:17;;;;;;;16.38;3.72;;;13.20;99.90;;;;;;5069377;28;20494;-63
2022/05/12 05:14:43;;;;;;;21.38;4.25;;;13.30;99.90;;;;;;5067281;28;20514;-67
2022/05/12 05:17:09;;;;;;;16.33;3.75;;;13.30;99.90;;;;;;5065632;28;20446;-64
2022/05/12 05:19:35;;;;;;;14.87;3.50;;;13.30;99.90;;;;;;5055790;28;20415;-64
2022/05/12 05:22:01;;;;;;;15.05;3.53;;;13.30;99.90;;;;;;5067534;28;20411;-63
2022/05/12 05:24:27;;;;;;;16.95;3.95;;;13.40;99.90;;;;;;5066776;28;20422;-63
2022/05/12 05:26:53;;;;;;;17.13;4.00;;;13.40;99.90;;;;;;5065876;28;20884;-64
2022/05/12 05:29:18;;;;;;;12.90;3.10;;;13.40;99.90;;;;;;5063775;28;20957;-62
2022/05/12 05:31:44;;;;;;;16.65;5.15;;;13.50;99.90;;;;;;5068427;28;20392;-64
2022/05/12 05:34:10;;;;;;;16.17;3.55;;;13.50;99.90;;;;;;5064526;28;20870;-65
2022/05/12 05:36:39;;;;;;;12.75;3.30;;;13.50;99.90;;;;;;5066983;28;20469;-61
2022/05/12 05:39:07;;;;;;;11.23;3.45;;;13.50;99.90;;;;;;5062327;28;20977;-63
2022/05/12 05:41:35;;;;;;;15.07;4.03;;;13.60;99.90;;;;;;5065420;28;20435;-62
2022/05/12 05:44:01;;;;;;;15.43;3.43;;;13.50;99.90;;;;;;5064002;28;20429;-62
2022/05/12 05:46:27;;;;;;;13.23;3.42;;;13.60;99.90;;;;;;5067135;28;20887;-62
2022/05/12 05:48:53;;;;;;;20.48;3.92;;;13.60;99.90;;;;;;5065365;28;21373;-63
2022/05/12 05:54:04;;;;;;;16.17;3.60;;;13.70;99.90;;;;;;5063859;28;20415;-63
2022/05/12 05:56:30;;;;;;;11.05;3.20;;;13.70;99.90;;;;;;5066879;28;20403;-62
2022/05/12 05:58:56;;;;;;;17.23;4.40;;;13.70;99.90;;;;;;5064630;28;20403;-64
2022/05/12 06:01:21;;;;;;;17.17;3.50;;;13.70;99.90;;;;;;5063267;28;20946;-63
2022/05/12 06:03:47;;;;;;;14.60;3.35;;;13.80;99.90;;;;;;5062141;28;20419;-64
2022/05/12 06:06:13;;;;;;;13.32;3.30;;;13.80;99.90;;;;;;5065374;28;20408;-64
2022/05/12 06:08:38;;;;;;;18.40;3.47;;;13.80;99.90;;;;;;5064544;28;20503;-65
2022/05/12 06:11:04;;;;;;;12.02;3.28;;;13.80;99.90;;;;;;5062325;28;20419;-61
2022/05/12 06:13:34;;;;;;;16.58;3.40;;;13.90;99.90;;;;;;5060128;28;21539;-63
2022/05/12 06:16:01;;;;;;;14.93;3.25;;;14.00;99.90;;;;;;5064413;28;20469;-64
2022/05/12 06:18:27;;;;;;;11.07;3.10;;;14.00;99.90;;;;;;5064876;28;20473;-63
2022/05/12 06:20:53;;;;;;;13.88;3.17;;;14.00;99.90;;;;;;5066230;28;20894;-63
2022/05/12 06:23:18;;;;;;;16.30;3.70;;;14.10;99.90;;;;;;5064294;28;20484;-63
2022/05/12 06:25:44;;;;;;;13.13;3.03;;;14.10;99.90;;;;;;5067615;28;20473;-63
2022/05/12 06:28:10;;;;;;;15.32;3.33;;;14.10;99.90;;;;;;5065140;28;20412;-64
2022/05/12 06:30:38;;;;;;;14.53;3.40;;;14.10;99.90;;;;;;5063277;28;20419;-63
2022/05/12 06:33:04;;;;;;;11.85;2.70;;;14.20;99.90;;;;;;5063892;28;20411;-62
2022/05/12 06:35:30;;;;;;;10.80;2.75;;;14.20;99.90;;;;;;5063917;28;20230;-64
2022/05/12 06:37:56;;;;;;;12.98;2.88;;;13.90;99.90;;;;;;5062671;28;20189;-64
2022/05/12 06:40:22;;;;;;;13.02;3.10;;;13.60;99.90;;;;;;5083229;28;20226;-62
2022/05/12 06:42:48;;;;;;;11.13;2.97;;;13.40;99.90;;;;;;5064195;28;20682;-63
2022/05/12 06:45:16;;;;;;;11.43;2.85;;;13.30;99.90;;;;;;5066636;28;20213;-62
2022/05/12 06:47:50;;;;;;;14.63;3.10;;;13.20;99.90;;;;;;5065475;28;20194;-63
2022/05/12 06:50:23;;;;;;;7.93;2.63;;;13.20;99.90;;;;;;5067468;28;20187;-62
2022/05/12 06:52:49;;;;;;;10.48;2.85;;;13.10;99.90;;;;;;5065276;28;20263;-62
2022/05/12 06:55:15;;;;;;;12.70;2.88;;;13.10;99.90;;;;;;5069584;28;21020;-65
2022/05/12 06:57:42;;;;;;;6.82;2.70;;;13.10;99.90;;;;;;5063637;28;20218;-63
2022/05/12 07:00:09;;;;;;;10.35;2.42;;;13.10;99.90;;;;;;5068377;28;20183;-64
2022/05/12 07:02:36;;;;;;;8.50;2.53;;;13.10;99.90;;;;;;5063810;28;20208;-63
2022/05/12 07:05:03;;;;;;;8.82;2.47;;;13.10;99.90;;;;;;5064700;28;20506;-63
2022/05/12 07:07:28;;;;;;;11.68;2.80;;;13.60;99.90;;;;;;5068658;28;20194;-64
2022/05/12 07:09:55;;;;;;;13.30;2.60;;;13.50;99.90;;;;;;5067943;28;20186;-64
2022/05/12 07:12:22;;;;;;;9.45;2.50;;;13.40;99.90;;;;;;5068491;28;20243;-63
2022/05/12 07:14:49;;;;;;;9.30;2.50;;;13.30;99.90;;;;;;5064036;28;20222;-64
2022/05/12 07:17:19;;;;;;;15.43;2.85;;;13.40;99.90;;;;;;5063857;28;20191;-65
2022/05/12 07:19:44;;;;;;;7.68;2.45;;;13.30;99.90;;;;;;5062236;28;20194;-65
2022/05/12 07:27:39;;;;;;;14.95;2.47;;;13.30;99.90;;;;;;5070332;28;20186;-64
2022/05/12 07:30:06;;;;;;;7.13;2.33;;;13.40;99.90;;;;;;5067307;28;20216;-64
2022/05/12 07:32:31;;;;;;;5.97;1.90;;;13.40;99.90;;;;;;5067787;28;20269;-64
2022/05/12 07:34:57;;;;;;;6.18;1.95;;;13.40;99.90;;;;;;5069501;28;20617;-66
2022/05/12 07:37:24;;;;;;;9.85;2.10;;;13.50;99.90;;;;;;5068748;28;20654;-65
2022/05/12 07:39:50;;;;;;;9.43;2.08;;;13.50;99.90;;;;;;5063191;28;20179;-63
2022/05/12 07:42:15;;;;;;;10.02;2.22;;;13.50;99.90;;;;;;5065212;28;20598;-64
2022/05/12 07:44:41;;;;;;;7.57;2.15;;;13.60;99.80;;;;;;5070042;28;20210;-64
2022/05/12 07:47:13;;;;;;;8.75;1.73;;;13.60;99.70;;;;;;5068783;28;20212;-65
2022/05/12 07:49:40;;;;;;;8.10;1.88;;;13.70;99.50;;;;;;5068945;28;20194;-65
2022/05/12 07:52:08;;;;;;;6.07;1.50;;;13.70;99.20;;;;;;5069022;28;20179;-64
2022/05/12 07:54:35;;;;;;;8.40;1.98;;;13.80;99.10;;;;;;5069589;28;20183;-65
2022/05/12 07:57:01;;;;;;;5.97;1.80;;;13.80;98.90;;;;;;5068589;28;20301;-65
2022/05/12 07:59:27;;;;;;;4.40;1.60;;;13.80;98.60;;;;;;5069527;28;20194;-64
2022/05/12 08:01:54;;;;;;;3.85;1.50;;;13.90;98.60;;;;;;5065835;28;20510;-64
2022/05/12 08:04:20;;;;;;;13.43;2.10;;;14.00;98.20;;;;;;5068213;28;20214;-64
2022/05/12 08:06:45;;;;;;;10.20;1.60;;;14.10;98.00;;;;;;5064034;28;20611;-65
2022/05/12 08:09:12;;;;;;;7.45;1.60;;;14.10;97.60;;;;;;5068125;28;20181;-66
2022/05/12 08:11:37;;;;;;;5.40;1.45;;;14.20;97.30;;;;;;5069137;28;20190;-64
2022/05/12 08:14:03;;;;;;;5.20;1.42;;;14.30;97.10;;;;;;5068493;28;20202;-64
2022/05/12 08:16:28;;;;;;;;;;;14.40;97.00;;;;;;5067269;28;20522;-64
2022/05/12 08:18:54;;;;;;;;;;;14.50;96.40;;;;;;5068295;28;19924;-65
2022/05/12 08:21:23;;;;;;;7.50;1.35;;;14.60;96.70;;;;;;5066316;28;20177;-63
2022/05/12 08:23:50;;;;;;;6.03;1.30;;;14.90;99.20;;;;;;5069530;28;20491;-65
2022/05/12 08:26:16;;;;;;;5.65;1.35;;;16.70;89.80;;;;;;5066887;28;20884;-64
2022/05/12 08:28:42;;;;;;;7.78;1.60;;;18.20;79.40;;;;;;5068596;28;20498;-64
2022/05/12 08:31:08;;;;;;;6.70;1.40;;;19.40;70.70;;;;;;5066084;28;20498;-64
2022/05/12 08:33:35;;;;;;;5.28;1.30;;;20.20;66.00;;;;;;5066966;28;20490;-63
2022/05/12 08:36:01;;;;;;;6.80;1.50;;;20.40;63.00;;;;;;5065268;28;20865;-64
2022/05/12 08:38:27;;;;;;;9.73;1.80;;;20.30;62.70;;;;;;5066819;28;20451;-65
2022/05/12 08:41:01;;;;;;;7.47;1.33;;;20.20;64.70;;;;;;5065665;28;20431;-64
2022/05/12 08:43:45;;;;;;;4.88;1.30;;;19.90;64.40;;;;;;5068600;28;20415;-65
2022/05/12 08:46:21;;;;;;;5.35;1.40;;;19.70;64.90;;;;;;5065274;28;20433;-64
2022/05/12 08:48:49;;;;;;;6.10;1.40;;;19.50;66.20;;;;;;5068137;28;20971;-65
2022/05/12 08:51:18;;;;;;;6.88;1.60;;;19.60;65.90;;;;;;5067025;28;20412;-64
2022/05/12 08:53:49;;;;;;;;;;;19.90;65.60;;;;;;5067355;28;20419;-65
2022/05/12 08:56:17;;;;;;;;;;;20.40;64.80;;;;;;5066361;28;19912;-65
2022/05/12 08:58:43;;;;;;;;;;;21.30;60.20;;;;;;5070473;28;19919;-65
2022/05/12 09:01:17;;;;;;;;;;;22.20;56.40;;;;;;5066352;28;20361;-64
2022/05/12 09:04:01;;;;;;;;;;;22.90;53.10;;;;;;5068512;28;19908;-64
2022/05/12 09:06:36;;;;;;;;;;;23.70;50.50;;;;;;5066834;28;20066;-66
2022/05/12 09:09:14;;;;;;;;;;;24.50;47.60;;;;;;5065907;28;20345;-65
2022/05/12 09:11:39;;;;;;;;;;;25.20;45.20;;;;;;5064078;28;20366;-64
2022/05/12 09:14:10;;;;;;;;;;;25.80;43.60;;;;;;5070280;28;19916;-63
2022/05/12 09:16:36;;;;;;;;;;;26.30;41.60;;;;;;5065678;28;19909;-64
2022/05/12 09:19:02;;;;;;;;;;;26.70;40.90;;;;;;5069326;28;20007;-64
2022/05/12 09:21:32;;;;;;;;;;;27.10;40.00;;;;;;5066136;28;19919;-65
2022/05/12 09:23:57;;;;;;;;;;;27.40;38.80;;;;;;5068853;28;19908;-64
2022/05/12 09:26:34;;;;;;;;;;;27.70;37.40;;;;;;5064015;28;20250;-65
2022/05/12 09:29:18;;;;;;;;;;;27.90;35.80;;;;;;5067109;28;19975;-65
2022/05/12 09:31:46;;;;;;;;;;;28.00;36.40;;;;;;5064277;28;20376;-64
2022/05/12 09:34:23;;;;;;;;;;;28.50;35.70;;;;;;5067217;28;19908;-65
2022/05/12 09:36:49;;;;;;;;;;;29.10;35.00;;;;;;5066848;28;20373;-65
2022/05/12 09:39:35;;;;;;;;;;;29.90;33.20;;;;;;5066217;28;19913;-65
2022/05/12 09:42:01;;;;;;;;;;;30.50;31.30;;;;;;5066016;28;19909;-65
2022/05/12 09:44:28;;;;;;;;;;;31.10;30.90;;;;;;5067432;28;20058;-65
2022/05/12 09:47:07;;;;;;;;;;;31.40;30.00;;;;;;5065788;28;19909;-65
2022/05/12 09:49:35;;;;;;;;;;;31.60;29.30;;;;;;5065887;28;19909;-64
2022/05/12 09:52:35;;;;;;;;;;;31.60;29.30;;;;;;5066224;28;20431;-65
2022/05/12 09:55:12;;;;;;;;;;;31.80;28.80;;;;;;5066068;28;19912;-63
2022/05/12 09:57:58;;;;;;;2.55;0.85;;;32.00;28.50;;;;;;5059267;28;20287;-64
2022/05/12 10:00:32;;;;;;;5.50;1.00;;;32.40;28.00;;;;;;5058699;28;20437;-64
2022/05/12 10:09:00;;;;;;;;;;;32.40;27.50;;;;;;5066818;28;20822;-67
2022/05/12 10:11:27;;;;;;;;;;;31.00;28.60;;;;;;5061556;28;20730;-68
2022/05/12 10:13:54;;;;;;;;;;;29.60;30.40;;;;;;5066577;28;19920;-68
2022/05/12 10:16:22;;;;;;;;;;;28.60;32.60;;;;;;5066448;28;20314;-66
2022/05/12 10:19:08;;;;;;;;;;;28.00;33.40;;;;;;5049433;28;19916;-63
2022/05/12 10:21:37;;;;;;;;;;;27.50;34.50;;;;;;5067124;28;19916;-65
2022/05/12 10:24:02;;;;;;;;;;;27.60;33.90;;;;;;5066172;28;20366;-64
2022/05/12 10:26:37;;;;;;;;;;;28.30;32.40;;;;;;5067840;28;19920;-63
2022/05/12 10:29:09;;;;;;;;;;;29.00;31.80;;;;;;5070312;28;19920;-62
2022/05/12 10:31:54;;;;;;;;;;;29.60;30.50;;;;;;5070300;28;19920;-64
2022/05/12 10:34:32;;;;;;;;;;;30.10;30.00;;;;;;5069706;28;20266;-63
2022/05/12 10:37:03;;;;;;;;;;;30.40;29.20;;;;;;5073037;28;20285;-64
2022/05/12 10:39:37;;;;;;;;;;;30.50;29.10;;;;;;5070633;28;19917;-65
2022/05/12 10:42:12;;;;;;;;;;;30.70;29.40;;;;;;5070914;28;19912;-66
2022/05/12 10:44:53;;;;;;;;;;;31.30;28.30;;;;;;5065225;28;19917;-65
2022/05/12 10:47:21;;;;;;;;;;;31.70;28.10;;;;;;5070094;28;20278;-65
2022/05/12 10:49:55;;;;;;;;;;;31.90;27.60;;;;;;5069893;28;19912;-64
2022/05/12 10:52:37;;;;;;;;;;;31.80;27.60;;;;;;5071428;28;19994;-64
2022/05/12 10:55:38;;;;;;;;;;;31.80;27.40;;;;;;5068901;28;19916;-65
2022/05/12 10:58:23;;;;;;;;;;;31.50;27.60;;;;;;5069167;28;19931;-65
2022/05/12 11:00:49;;;;;;;;;;;31.10;27.70;;;;;;5070395;28;19908;-64
2022/05/12 11:03:17;;;;;;;;;;;30.90;28.00;;;;;;5070846;28;19923;-65
2022/05/12 11:05:45;;;;;;;;;;;30.90;27.90;;;;;;5068819;28;20003;-65
2022/05/12 11:08:14;;;;;;;;;;;30.90;28.60;;;;;;5066530;28;19943;-65
2022/05/12 11:10:44;;;;;;;;;;;31.10;27.80;;;;;;5070236;28;20383;-64
2022/05/12 11:13:32;;;;;;;;;;;31.00;27.80;;;;;;5070806;28;19916;-64
2022/05/12 11:15:58;;;;;;;;;;;31.00;28.00;;;;;;5071613;28;19934;-64
2022/05/12 11:18:27;;;;;;;;;;;30.90;28.00;;;;;;5067295;28;19913;-64
2022/05/12 11:21:02;;;;;;;;;;;31.00;28.00;;;;;;5070829;28;19917;-64
2022/05/12 11:23:36;;;;;;;;;;;31.10;27.70;;;;;;5070295;28;19916;-64
2022/05/12 11:26:14;;;;;;;;;;;31.20;27.70;;;;;;5069919;28;19920;-64
2022/05/12 11:31:40;;;;;;;;;;;31.30;27.30;;;;;;5069360;28;20400;-65
2022/05/12 11:34:08;;;;;;;;;;;31.20;27.40;;;;;;5070653;28;19916;-64
2022/05/12 11:36:37;;;;;;;;;;;31.20;27.50;;;;;;5069743;28;19929;-63
2022/05/12 11:39:23;;;;;;;;;;;31.10;27.40;;;;;;5067630;28;19919;-64
2022/05/12 11:42:05;;;;;;;;;;;31.00;27.70;;;;;;5071692;28;20025;-65
2022/05/12 11:44:34;;;;;;;;;;;30.90;27.50;;;;;;5065494;28;20429;-63
2022/05/12 11:47:09;;;;;;;;;;;30.80;27.60;;;;;;5070932;28;20266;-64
2022/05/12 11:49:44;;;;;;;;;;;30.60;27.30;;;;;;5066453;28;19916;-65
2022/05/12 11:52:17;;;;;;;;;;;30.30;27.90;;;;;;5067351;28;19995;-65
2022/05/12 11:54:48;;;;;;;;;;;30.10;28.30;;;;;;5070107;28;20277;-65
2022/05/12 11:57:20;;;;;;;;;;;30.10;28.40;;;;;;5070627;28;19916;-64
2022/05/12 11:59:47;;;;;;;;;;;30.00;28.00;;;;;;5067594;28;19924;-65
2022/05/12 12:02:28;;;;;;;;;;;29.90;28.20;;;;;;5070349;28;19920;-65
2022/05/12 12:04:58;;;;;;;;;;;29.90;27.90;;;;;;5066244;28;19999;-65
2022/05/12 12:07:32;;;;;;;;;;;29.90;27.50;;;;;;5068515;28;19924;-64
2022/05/12 12:10:06;;;;;;;;;;;30.00;27.70;;;;;;5069484;28;19920;-64
2022/05/12 12:12:41;;;;;;;;;;;30.00;27.40;;;;;;5072334;28;19917;-64
2022/05/12 12:15:11;;;;;;;;;;;30.00;27.80;;;;;;5069190;28;19955;-64
2022/05/12 12:17:38;;;;;;;;;;;30.10;27.70;;;;;;5068821;28;19982;-65
2022/05/12 12:20:09;;;;;;;;;;;30.00;27.50;;;;;;5068321;28;20365;-64
2022/05/12 12:22:40;;;;;;;;;;;29.50;27.60;;;;;;5069065;28;19917;-64
2022/05/12 12:25:08;;;;;;;;;;;29.10;28.10;;;;;;5069366;28;20373;-64
2022/05/12 12:27:44;;;;;;;;;;;28.80;28.70;;;;;;5070242;28;20433;-63
2022/05/12 12:30:21;;;;;;;;;;;28.70;29.10;;;;;;5069480;28;20400;-65
2022/05/12 12:33:07;;;;;;;;;;;28.80;29.30;;;;;;5070869;28;20281;-65
2022/05/12 12:35:48;;;;;;;;;;;28.90;29.20;;;;;;5067091;28;20014;-65
2022/05/12 12:38:33;;;;;;;;;;;28.80;29.50;;;;;;5069497;28;19912;-64
2022/05/12 12:40:59;;;;;;;;;;;28.70;29.50;;;;;;5069934;28;19912;-64
2022/05/12 12:43:33;;;;;;;;;;;28.70;29.30;;;;;;5069833;28;20336;-65
2022/05/12 12:46:09;;;;;;;;;;;28.40;29.50;;;;;;5069417;28;20007;-64
2022/05/12 12:48:37;;;;;;;;;;;28.10;29.70;;;;;;5068339;28;19913;-65
2022/05/12 12:51:03;;;;;;;;;;;27.90;30.20;;;;;;5066403;28;20003;-66
2022/05/12 12:56:36;;;;;;;;;;;27.50;31.70;;;;;;5070025;28;19952;-66
2022/05/12 12:59:06;;;;;;;;;;;27.10;31.90;;;;;;5068530;28;20351;-67
2022/05/12 13:01:37;;;;;;;;;;;26.80;33.30;;;;;;5067061;28;19909;-64
2022/05/12 13:04:06;;;;;;;;;;;26.50;33.30;;;;;;5068205;28;19912;-65
2022/05/12 13:06:36;;;;;;;;;;;26.50;34.00;;;;;;5070360;28;19932;-65
2022/05/12 13:09:10;;;;;;;;;;;26.30;32.40;;;;;;5066355;28;19947;-65
2022/05/12 13:11:38;;;;;;;;;;;26.00;33.00;;;;;;5067166;28;19916;-65
2022/05/12 13:14:08;;;;;;;;;;;25.80;33.20;;;;;;5067414;28;19912;-65
2022/05/12 13:16:36;;;;;;;;;;;25.80;33.60;;;;;;5069024;28;19966;-65
2022/05/12 13:19:02;;;;;;;;;;;25.70;33.70;;;;;;5068105;28;19908;-66
2022/05/12 13:21:32;;;;;;;;;;;25.50;33.80;;;;;;5062587;28;19915;-65
2022/05/12 13:24:22;;;;;;;4.07;1.20;;;25.40;34.00;;;;;;5063619;28;20548;-65
2022/05/12 13:26:51;;;;;;;6.37;1.20;;;25.20;34.60;;;;;;5066218;28;20419;-65
2022/05/12 13:29:31;;;;;;;3.63;1.23;;;25.20;35.40;;;;;;5064070;28;20423;-65
2022/05/12 13:32:12;;;;;;;6.73;1.30;;;25.40;35.10;;;;;;5066410;28;20745;-66
2022/05/12 13:34:39;;;;;;;9.75;1.27;;;25.40;35.10;;;;;;5063944;28;20487;-66
2022/05/12 13:37:24;;;;;;;10.45;1.63;;;25.40;35.50;;;;;;5064489;28;20411;-66
2022/05/12 13:39:55;;;;;;;7.25;1.60;;;25.40;36.00;;;;;;5065331;28;20411;-65